createdAt,value
2023-12-08T00:02:17.378Z,22.15
2023-12-08T00:04:45.681Z,21.27
2023-12-08T00:07:14.736Z,18.05
2023-12-08T00:09:42.997Z,16.50
2023-12-08T00:12:11.326Z,16.50
2023-12-08T00:14:39.623Z,15.70
2023-12-08T00:17:11.704Z,17.80
2023-12-08T00:19:42.180Z,18.50
2023-12-08T00:22:10.584Z,13.68
2023-12-08T00:24:38.803Z,20.60
2023-12-08T00:27:07.772Z,20.33
2023-12-08T00:29:36.076Z,19.50
2023-12-08T00:32:04.400Z,17.17
2023-12-08T00:34:34.307Z,16.48
2023-12-08T00:37:02.623Z,17.42
2023-12-08T00:39:30.882Z,22.25
2023-12-08T00:41:59.202Z,17.90
2023-12-08T00:44:27.751Z,22.55
2023-12-08T00:46:56.016Z,15.57
2023-12-08T00:49:24.792Z,21.95
2023-12-08T00:51:54.567Z,18.67
2023-12-08T00:54:23.045Z,14.02
2023-12-08T00:56:51.362Z,17.77
2023-12-08T00:59:19.611Z,15.25
2023-12-08T01:01:50.453Z,15.80
2023-12-08T01:04:18.865Z,13.48
2023-12-08T01:06:47.098Z,15.48
2023-12-08T01:09:16.877Z,14.52
2023-12-08T01:11:45.318Z,14.98
2023-12-08T01:14:13.638Z,13.40
2023-12-08T01:16:43.107Z,16.05
2023-12-08T01:19:13.752Z,17.63
2023-12-08T01:21:42.535Z,15.43
2023-12-08T01:24:10.902Z,12.95
2023-12-08T01:26:45.186Z,12.70
2023-12-08T01:29:13.658Z,14.63
2023-12-08T01:31:42.610Z,16.77
2023-12-08T01:34:10.923Z,14.90
2023-12-08T01:36:43.198Z,17.13
2023-12-08T01:39:12.981Z,17.08
2023-12-08T01:41:42.710Z,15.70
2023-12-08T01:44:11.035Z,12.05
2023-12-08T01:46:44.693Z,12.43
2023-12-08T01:49:13.414Z,12.02
2023-12-08T01:51:41.801Z,13.02
2023-12-08T01:54:10.206Z,10.25
2023-12-08T01:56:39.841Z,12.85
2023-12-08T01:59:10.889Z,11.90
2023-12-08T02:01:39.728Z,14.10
2023-12-08T02:04:08.212Z,13.60
2023-12-08T02:06:38.148Z,12.48
2023-12-08T02:09:09.061Z,16.55
2023-12-08T02:11:38.231Z,15.07
2023-12-08T02:14:06.798Z,17.42
2023-12-08T02:16:47.980Z,15.10
2023-12-08T02:19:19.094Z,18.60
2023-12-08T02:21:48.086Z,12.88
2023-12-08T02:24:20.655Z,13.25
2023-12-08T02:26:49.641Z,12.70
2023-12-08T02:29:18.304Z,12.95
2023-12-08T02:31:49.830Z,16.23
2023-12-08T02:34:18.961Z,12.95
2023-12-08T02:36:48.740Z,10.63
2023-12-08T02:39:21.105Z,14.20
2023-12-08T02:41:49.581Z,15.02
2023-12-08T02:44:17.930Z,11.23
2023-12-08T02:46:46.444Z,11.18
2023-12-08T02:49:14.914Z,11.73
2023-12-08T02:51:43.185Z,15.25
2023-12-08T02:54:11.613Z,17.38
2023-12-08T02:56:41.366Z,12.85
2023-12-08T02:59:09.598Z,14.85
2023-12-08T03:01:37.847Z,15.32
2023-12-08T03:04:06.324Z,13.52
2023-12-08T03:06:34.613Z,9.95
2023-12-08T03:09:02.944Z,11.60
2023-12-08T03:11:31.321Z,12.55
2023-12-08T03:14:03.203Z,17.08
2023-12-08T03:16:31.644Z,12.60
2023-12-08T03:19:00.073Z,13.30
2023-12-08T03:21:29.304Z,15.60
2023-12-08T03:23:57.756Z,11.02
2023-12-08T03:26:25.992Z,9.18
2023-12-08T03:28:54.244Z,12.40
2023-12-08T03:31:27.019Z,13.30
2023-12-08T03:33:55.770Z,14.13
2023-12-08T03:36:24.166Z,12.23
2023-12-08T03:38:52.547Z,14.68
2023-12-08T03:41:20.872Z,15.20
2023-12-08T03:43:49.164Z,13.82
2023-12-08T03:46:20.270Z,10.48
2023-12-08T03:48:51.884Z,13.52
2023-12-08T03:51:21.795Z,13.90
2023-12-08T03:53:50.300Z,13.55
2023-12-08T03:56:19.016Z,15.18
2023-12-08T03:58:47.269Z,12.93
2023-12-08T04:01:18.652Z,15.57
2023-12-08T04:03:50.790Z,14.55
2023-12-08T04:06:19.303Z,16.05
2023-12-08T04:08:47.604Z,16.63
2023-12-08T04:11:15.928Z,13.60
2023-12-08T04:13:44.167Z,13.00
2023-12-08T04:16:12.910Z,15.80
2023-12-08T04:18:41.386Z,19.23
2023-12-08T04:21:11.162Z,17.98
2023-12-08T04:23:39.446Z,14.90
2023-12-08T04:26:09.328Z,18.83
2023-12-08T04:28:37.797Z,10.27
2023-12-08T04:31:06.787Z,12.40
2023-12-08T04:33:35.561Z,20.52
2023-12-08T04:36:04.459Z,15.02
2023-12-08T04:38:34.166Z,18.40
2023-12-08T04:41:02.770Z,15.65
2023-12-08T04:43:31.022Z,18.75
2023-12-08T04:45:59.490Z,15.20
2023-12-08T04:48:27.960Z,14.73
2023-12-08T04:50:56.734Z,11.65
2023-12-08T04:53:24.948Z,17.40
2023-12-08T04:55:54.615Z,14.18
2023-12-08T04:58:23.093Z,18.88
2023-12-08T05:00:54.005Z,20.15
2023-12-08T05:03:24.798Z,14.68
2023-12-08T05:05:53.075Z,18.10
2023-12-08T05:08:21.309Z,14.68
2023-12-08T05:10:49.541Z,15.45
2023-12-08T05:13:19.143Z,16.48
2023-12-08T05:15:47.450Z,14.57
2023-12-08T05:18:15.986Z,13.52
2023-12-08T05:20:44.519Z,14.80
2023-12-08T05:23:12.908Z,13.85
2023-12-08T05:25:41.222Z,15.27
2023-12-08T05:28:09.813Z,13.82
2023-12-08T05:30:39.513Z,14.18
2023-12-08T05:33:07.942Z,13.50
2023-12-08T05:35:36.230Z,15.60
2023-12-08T05:38:04.517Z,15.70
2023-12-08T05:40:32.828Z,15.70
2023-12-08T05:43:01.049Z,15.60
2023-12-08T05:45:29.288Z,15.82
2023-12-08T05:47:59.284Z,15.85
2023-12-08T05:50:27.957Z,17.73
2023-12-08T05:52:56.257Z,17.85
2023-12-08T05:55:24.569Z,18.13
2023-12-08T05:57:53.533Z,21.70
2023-12-08T06:00:22.146Z,18.10
2023-12-08T06:02:50.776Z,17.40
2023-12-08T06:05:20.590Z,18.35
2023-12-08T06:07:48.996Z,16.02
2023-12-08T06:10:17.830Z,18.58
2023-12-08T06:12:46.181Z,12.85
2023-12-08T06:15:14.683Z,17.63
2023-12-08T06:17:43.393Z,16.15
2023-12-08T06:20:13.930Z,25.63
2023-12-08T06:22:44.269Z,18.30
2023-12-08T06:25:12.591Z,18.13
2023-12-08T06:27:40.941Z,19.85
2023-12-08T06:30:10.366Z,16.17
2023-12-08T06:32:40.302Z,21.10
2023-12-08T06:35:09.493Z,17.00
2023-12-08T06:37:37.836Z,16.60
2023-12-08T06:40:11.220Z,22.70
2023-12-08T06:42:39.509Z,20.70
2023-12-08T06:45:09.993Z,18.08
2023-12-08T06:47:38.684Z,16.88
2023-12-08T06:50:08.158Z,14.52
2023-12-08T06:52:36.432Z,21.65
2023-12-08T06:55:05.165Z,21.38
2023-12-08T06:57:35.038Z,21.13
2023-12-08T07:00:05.780Z,17.27
2023-12-08T07:02:34.315Z,21.30
2023-12-08T07:05:02.703Z,13.93
2023-12-08T07:07:31.488Z,16.63
2023-12-08T07:10:02.106Z,15.65
2023-12-08T07:12:31.617Z,17.50
2023-12-08T07:15:01.251Z,15.48
2023-12-08T07:17:32.359Z,18.50
2023-12-08T07:20:00.819Z,20.10
2023-12-08T07:22:30.810Z,16.80
2023-12-08T07:24:59.082Z,24.25
2023-12-08T07:27:28.384Z,21.42
2023-12-08T07:29:58.476Z,23.27
2023-12-08T07:32:28.225Z,17.80
2023-12-08T07:34:56.518Z,15.55
2023-12-08T07:37:25.121Z,17.65
2023-12-08T07:39:53.434Z,17.45
2023-12-08T07:42:21.795Z,19.17
2023-12-08T07:44:50.157Z,21.35
2023-12-08T07:47:18.885Z,16.70
2023-12-08T07:49:48.601Z,17.88
2023-12-08T07:52:19.168Z,17.20
2023-12-08T07:54:47.454Z,16.60
2023-12-08T07:57:15.901Z,16.83
2023-12-08T07:59:44.324Z,19.35
2023-12-08T08:02:12.722Z,20.85
2023-12-08T08:04:42.451Z,16.48
2023-12-08T08:07:12.094Z,23.60
2023-12-08T08:09:40.609Z,17.08
2023-12-08T08:12:10.786Z,16.63
2023-12-08T08:14:39.959Z,18.77
2023-12-08T08:17:08.354Z,20.75
2023-12-08T08:19:36.663Z,21.48
2023-12-08T08:22:28.759Z,23.50
2023-12-08T08:24:55.362Z,16.58
2023-12-08T08:27:23.837Z,16.55
2023-12-08T08:29:52.281Z,17.30
2023-12-08T08:32:20.580Z,21.23
2023-12-08T08:34:49.105Z,25.65
2023-12-08T08:37:17.401Z,24.42
2023-12-08T08:39:48.019Z,17.95
2023-12-08T08:42:18.239Z,20.23
2023-12-08T08:44:47.476Z,21.75
2023-12-08T08:47:15.816Z,21.85
2023-12-08T08:49:45.015Z,19.52
2023-12-08T08:52:14.190Z,26.50
2023-12-08T08:54:42.582Z,17.27
2023-12-08T08:57:11.129Z,17.50
2023-12-08T08:59:42.970Z,16.58
2023-12-08T09:02:11.216Z,14.35
2023-12-08T09:04:39.455Z,16.60
2023-12-08T09:07:07.898Z,15.75
2023-12-08T09:09:37.829Z,16.10
2023-12-08T09:12:08.607Z,23.45
2023-12-08T09:14:39.605Z,18.33
2023-12-08T09:17:09.451Z,18.40
2023-12-08T09:19:39.321Z,18.23
2023-12-08T09:22:09.837Z,16.65
2023-12-08T09:24:38.096Z,25.13
2023-12-08T09:27:06.719Z,23.95
2023-12-08T09:29:35.451Z,25.58
2023-12-08T09:32:03.925Z,18.60
2023-12-08T09:34:34.849Z,18.95
2023-12-08T09:37:26.151Z,18.52
2023-12-08T09:39:52.649Z,17.83
2023-12-08T09:42:29.459Z,21.10
2023-12-08T09:44:58.151Z,19.05
2023-12-08T09:47:29.117Z,19.50
2023-12-08T09:50:01.622Z,19.65
2023-12-08T09:52:31.042Z,15.35
2023-12-08T09:55:00.481Z,20.65
2023-12-08T09:57:30.910Z,20.92
2023-12-08T10:00:00.783Z,21.67
2023-12-08T10:02:29.492Z,19.55
2023-12-08T10:04:59.205Z,18.75
2023-12-08T10:07:33.190Z,17.50
2023-12-08T10:10:01.714Z,21.63
2023-12-08T10:12:30.311Z,15.57
2023-12-08T10:15:00.186Z,12.90
2023-12-08T10:17:31.200Z,16.50
2023-12-08T10:20:12.558Z,14.60
2023-12-08T10:22:49.945Z,21.35
2023-12-08T10:25:20.248Z,17.92
2023-12-08T10:27:51.158Z,22.20
2023-12-08T10:30:20.552Z,15.73
2023-12-08T10:32:49.822Z,19.23
2023-12-08T10:35:20.068Z,15.23
2023-12-08T10:37:48.411Z,23.95
2023-12-08T10:40:20.425Z,22.25
2023-12-08T10:42:50.122Z,20.80
2023-12-08T10:45:19.060Z,28.85
2023-12-08T10:47:51.816Z,20.75
2023-12-08T10:50:22.108Z,23.42
2023-12-08T10:52:52.055Z,23.05
2023-12-08T10:55:20.587Z,20.35
2023-12-08T10:57:50.589Z,20.95
2023-12-08T11:00:25.405Z,15.00
2023-12-08T11:02:58.660Z,16.58
2023-12-08T11:05:37.295Z,24.85
2023-12-08T11:08:14.455Z,22.73
2023-12-08T11:10:48.133Z,18.00
2023-12-08T11:13:25.720Z,19.52
2023-12-08T11:16:14.368Z,19.10
2023-12-08T11:18:43.732Z,19.00
2023-12-08T11:21:14.056Z,19.30
2023-12-08T11:23:43.832Z,23.75
2023-12-08T11:26:18.065Z,28.50
2023-12-08T11:29:01.546Z,20.63
2023-12-08T11:31:37.969Z,20.50
2023-12-08T11:34:13.313Z,21.15
2023-12-08T11:36:47.131Z,22.80
2023-12-08T11:39:41.644Z,20.20
2023-12-08T11:42:11.176Z,21.65
2023-12-08T11:44:41.091Z,17.90
2023-12-08T11:47:15.759Z,19.95
2023-12-08T11:49:45.407Z,24.67
2023-12-08T11:52:17.545Z,25.52
2023-12-08T11:55:14.454Z,20.98
2023-12-08T11:57:55.404Z,21.65
2023-12-08T12:00:24.049Z,17.98
2023-12-08T12:02:53.927Z,15.40
2023-12-08T12:05:23.791Z,17.52
2023-12-08T12:07:55.205Z,18.27
2023-12-08T12:10:26.636Z,18.45
2023-12-08T12:12:57.962Z,24.13
2023-12-08T12:15:27.309Z,23.73
2023-12-08T12:17:55.893Z,18.13
2023-12-08T12:20:24.254Z,17.52
2023-12-08T12:22:53.921Z,18.75
2023-12-08T12:25:22.987Z,20.02
2023-12-08T12:27:52.067Z,21.77
2023-12-08T12:30:20.406Z,17.33
2023-12-08T12:32:50.957Z,15.50
2023-12-08T12:35:20.281Z,18.38
2023-12-08T12:37:48.800Z,22.38
2023-12-08T12:40:18.491Z,24.30
2023-12-08T12:42:48.827Z,17.30
2023-12-08T12:45:29.399Z,31.23
2023-12-08T12:48:04.651Z,25.48
2023-12-08T12:50:34.333Z,27.10
2023-12-08T12:53:05.937Z,23.92
2023-12-08T12:55:35.604Z,18.65
2023-12-08T12:58:06.336Z,19.60
2023-12-08T13:00:36.632Z,21.35
2023-12-08T13:03:10.163Z,18.27
2023-12-08T13:05:47.109Z,22.10
2023-12-08T13:08:16.934Z,19.40
2023-12-08T13:10:48.275Z,20.42
2023-12-08T13:13:20.289Z,27.08
2023-12-08T13:15:51.110Z,26.77
2023-12-08T13:18:19.795Z,24.63
2023-12-08T13:20:48.316Z,25.63
2023-12-08T13:23:17.103Z,28.48
2023-12-08T13:25:47.629Z,25.00
2023-12-08T13:28:16.344Z,23.58
2023-12-08T13:30:45.522Z,23.15
2023-12-08T13:33:13.943Z,25.70
2023-12-08T13:35:42.502Z,26.90
2023-12-08T13:38:11.387Z,26.20
2023-12-08T13:40:42.145Z,26.38
2023-12-08T13:43:11.930Z,28.02
2023-12-08T13:45:42.181Z,22.50
2023-12-08T13:48:10.728Z,26.25
2023-12-08T13:50:47.436Z,28.88
2023-12-08T13:53:23.423Z,25.80
2023-12-08T13:55:52.328Z,25.02
2023-12-08T13:58:22.360Z,22.48
2023-12-08T14:00:50.757Z,20.88
2023-12-08T14:03:19.188Z,31.25
2023-12-08T14:05:47.814Z,24.80
2023-12-08T14:08:16.163Z,26.08
2023-12-08T14:10:44.782Z,20.20
2023-12-08T14:13:13.252Z,20.70
2023-12-08T14:15:43.219Z,25.38
2023-12-08T14:18:12.329Z,21.05
2023-12-08T14:20:40.832Z,22.98
2023-12-08T14:23:10.408Z,22.17
2023-12-08T14:25:38.719Z,27.88
2023-12-08T14:28:07.072Z,25.67
2023-12-08T14:30:35.374Z,21.95
2023-12-08T14:33:05.573Z,25.00
2023-12-08T14:35:37.105Z,24.27
2023-12-08T14:38:05.480Z,24.05
2023-12-08T14:40:35.741Z,23.50
2023-12-08T14:43:04.143Z,24.10
2023-12-08T14:45:33.212Z,22.52
2023-12-08T14:48:01.590Z,24.02
2023-12-08T14:50:31.558Z,21.67
2023-12-08T14:52:59.809Z,23.38
2023-12-08T14:55:28.392Z,20.13
2023-12-08T14:57:56.719Z,26.73
2023-12-08T15:00:25.212Z,22.95
2023-12-08T15:02:53.678Z,24.58
2023-12-08T15:05:22.256Z,20.02
2023-12-08T15:07:52.268Z,18.42
2023-12-08T15:10:20.718Z,22.33
2023-12-08T15:12:49.589Z,25.85
2023-12-08T15:15:18.005Z,24.05
2023-12-08T15:17:46.489Z,24.95
2023-12-08T15:20:15.755Z,18.88
2023-12-08T15:22:44.069Z,35.20
2023-12-08T15:25:13.689Z,25.45
2023-12-08T15:27:42.195Z,24.52
2023-12-08T15:30:11.424Z,24.52
2023-12-08T15:32:39.688Z,31.60
2023-12-08T15:35:09.482Z,21.25
2023-12-08T15:37:37.873Z,27.83
2023-12-08T15:40:06.955Z,24.80
2023-12-08T15:42:36.625Z,29.35
2023-12-08T15:45:06.717Z,27.73
2023-12-08T15:47:35.632Z,29.38
2023-12-08T15:50:04.566Z,29.50
2023-12-08T15:52:32.949Z,26.23
2023-12-08T15:55:01.291Z,21.23
2023-12-08T15:57:30.680Z,22.98
2023-12-08T16:00:00.492Z,22.23
2023-12-08T16:02:30.168Z,27.77
2023-12-08T16:04:58.413Z,29.58
2023-12-08T16:07:28.356Z,25.80
2023-12-08T16:09:56.942Z,28.25
2023-12-08T16:12:25.673Z,23.42
2023-12-08T16:14:54.217Z,28.17
2023-12-08T16:17:24.087Z,21.63
2023-12-08T16:19:52.660Z,31.83
2023-12-08T16:22:20.886Z,32.80
2023-12-08T16:24:49.219Z,32.17
2023-12-08T16:27:17.748Z,26.45
2023-12-08T16:29:46.696Z,33.47
2023-12-08T16:32:15.430Z,29.58
2023-12-08T16:34:45.206Z,32.95
2023-12-08T16:37:13.818Z,30.48
2023-12-08T16:39:42.112Z,30.42
2023-12-08T16:42:10.393Z,35.85
2023-12-08T16:44:39.309Z,32.85
2023-12-08T16:47:07.690Z,35.60
2023-12-08T16:49:35.988Z,32.65
2023-12-08T16:52:06.313Z,29.55
2023-12-08T16:54:34.724Z,32.47
2023-12-08T16:57:03.732Z,29.15
2023-12-08T16:59:34.068Z,35.45
2023-12-08T17:02:02.398Z,31.50
2023-12-08T17:04:30.789Z,33.22
2023-12-08T17:07:00.228Z,23.92
2023-12-08T17:09:36.499Z,32.30
2023-12-08T17:12:05.537Z,29.52
2023-12-08T17:14:36.314Z,24.88
2023-12-08T17:17:05.368Z,28.02
2023-12-08T17:19:33.943Z,24.35
2023-12-08T17:22:04.587Z,24.60
2023-12-08T17:24:34.216Z,23.70
2023-12-08T17:27:05.449Z,23.48
2023-12-08T17:29:33.779Z,32.03
2023-12-08T17:32:02.164Z,23.30
2023-12-08T17:34:30.615Z,25.50
2023-12-08T17:36:59.417Z,26.00
2023-12-08T17:39:27.836Z,26.60
2023-12-08T17:41:58.551Z,24.33
2023-12-08T17:44:26.917Z,27.15
2023-12-08T17:46:55.570Z,29.80
2023-12-08T17:49:24.036Z,29.40
2023-12-08T17:51:52.576Z,19.25
2023-12-08T17:54:22.146Z,26.95
2023-12-08T17:56:55.115Z,28.67
2023-12-08T17:59:25.329Z,26.15
2023-12-08T18:01:53.670Z,25.00
2023-12-08T18:04:24.405Z,24.42
2023-12-08T18:06:52.830Z,25.65
2023-12-08T18:09:21.130Z,22.02
2023-12-08T18:11:51.809Z,28.63
2023-12-08T18:14:20.100Z,18.42
2023-12-08T18:16:51.070Z,24.92
2023-12-08T18:19:19.595Z,24.55
2023-12-08T18:21:48.140Z,22.98
2023-12-08T18:24:17.423Z,24.17
2023-12-08T18:26:45.737Z,25.67
2023-12-08T18:29:13.980Z,22.65
2023-12-08T18:31:42.208Z,27.27
2023-12-08T18:34:11.920Z,24.73
2023-12-08T18:36:40.241Z,23.70
2023-12-08T18:39:08.838Z,25.85
2023-12-08T18:41:37.537Z,25.92
2023-12-08T18:44:06.520Z,27.75
2023-12-08T18:46:35.261Z,23.08
2023-12-08T18:49:04.861Z,17.23
2023-12-08T18:51:34.932Z,25.35
2023-12-08T18:54:03.527Z,16.48
2023-12-08T18:56:31.812Z,25.02
2023-12-08T18:59:00.022Z,23.92
2023-12-08T19:01:28.977Z,26.58
2023-12-08T19:03:57.334Z,16.85
2023-12-08T19:06:25.784Z,20.58
2023-12-08T19:08:55.990Z,21.75
2023-12-08T19:11:24.287Z,25.00
2023-12-08T19:13:52.932Z,20.65
2023-12-08T19:16:21.172Z,20.20
2023-12-08T19:18:49.683Z,22.88
2023-12-08T19:21:17.990Z,21.73
2023-12-08T19:23:46.440Z,28.95
2023-12-08T19:26:16.145Z,22.23
2023-12-08T19:28:45.237Z,19.15
2023-12-08T19:31:13.929Z,24.48
2023-12-08T19:33:43.237Z,23.52
2023-12-08T19:36:16.116Z,19.73
2023-12-08T19:38:45.000Z,19.77
2023-12-08T19:41:13.302Z,18.67
2023-12-08T19:43:42.999Z,23.10
2023-12-08T19:46:11.425Z,18.33
2023-12-08T19:48:39.788Z,18.15
2023-12-08T19:51:08.607Z,24.83
2023-12-08T19:53:36.972Z,22.23
2023-12-08T19:56:05.776Z,24.45
2023-12-08T19:58:34.037Z,24.55
2023-12-08T20:01:06.410Z,25.33
2023-12-08T20:03:34.803Z,25.58
2023-12-08T20:06:03.195Z,29.77
2023-12-08T20:08:31.705Z,19.30
2023-12-08T20:11:01.507Z,21.27
2023-12-08T20:13:29.837Z,23.08
2023-12-08T20:15:58.124Z,23.80
2023-12-08T20:18:28.729Z,20.30
2023-12-08T20:20:57.106Z,21.92
2023-12-08T20:23:25.532Z,30.90
2023-12-08T20:25:54.271Z,21.17
2023-12-08T20:28:22.576Z,27.52
2023-12-08T20:30:50.843Z,21.10
2023-12-08T20:33:19.193Z,22.63
2023-12-08T20:35:48.884Z,27.02
2023-12-08T20:38:17.881Z,29.35
2023-12-08T20:40:48.489Z,25.17
2023-12-08T20:43:18.110Z,25.70
2023-12-08T20:45:47.519Z,23.45
2023-12-08T20:48:17.172Z,30.85
2023-12-08T20:50:45.571Z,30.83
2023-12-08T20:53:15.549Z,29.98
2023-12-08T20:55:43.955Z,39.67
2023-12-08T20:58:12.307Z,31.30
2023-12-08T21:00:40.979Z,25.83
2023-12-08T21:03:09.483Z,23.15
2023-12-08T21:05:37.745Z,26.63
2023-12-08T21:08:06.885Z,26.70
2023-12-08T21:10:36.614Z,24.80
2023-12-08T21:13:05.314Z,27.30
2023-12-08T21:15:33.845Z,25.23
2023-12-08T21:18:02.309Z,23.23
2023-12-08T21:20:30.595Z,24.77
2023-12-08T21:22:58.938Z,21.20
2023-12-08T21:25:28.937Z,23.60
2023-12-08T21:27:58.751Z,21.83
2023-12-08T21:30:27.130Z,25.90
2023-12-08T21:32:55.721Z,21.40
2023-12-08T21:35:24.232Z,18.20
2023-12-08T21:37:52.443Z,21.95
2023-12-08T21:40:22.196Z,21.95
2023-12-08T21:42:53.100Z,21.88
2023-12-08T21:45:23.068Z,21.92
2023-12-08T21:47:51.572Z,18.92
2023-12-08T21:50:20.128Z,16.88
2023-12-08T21:52:51.026Z,20.52
2023-12-08T21:55:20.918Z,17.58
2023-12-08T21:57:49.251Z,17.55
2023-12-08T22:00:18.409Z,14.05
2023-12-08T22:02:48.247Z,22.85
2023-12-08T22:05:16.711Z,17.23
2023-12-08T22:07:45.020Z,15.45
2023-12-08T22:10:13.438Z,16.17
2023-12-08T22:12:41.883Z,12.43
2023-12-08T22:15:12.443Z,19.80
2023-12-08T22:17:40.728Z,21.52
2023-12-08T22:20:13.108Z,17.13
2023-12-08T22:22:41.507Z,18.85
2023-12-08T22:25:11.581Z,20.02
2023-12-08T22:27:40.031Z,15.95
2023-12-08T22:30:09.525Z,16.98
2023-12-08T22:32:38.032Z,18.60
2023-12-08T22:35:07.531Z,15.55
2023-12-08T22:37:38.129Z,14.65
2023-12-08T22:40:09.280Z,16.88
2023-12-08T22:42:37.612Z,21.85
2023-12-08T22:45:06.917Z,18.60
2023-12-08T22:47:35.383Z,20.55
2023-12-08T22:50:03.911Z,20.42
2023-12-08T22:52:32.545Z,15.30
2023-12-08T22:55:02.317Z,11.82
2023-12-08T22:57:30.645Z,14.40
2023-12-08T22:59:58.970Z,12.35
2023-12-08T23:02:29.890Z,19.80
2023-12-08T23:04:58.535Z,17.00
2023-12-08T23:07:26.875Z,15.95
2023-12-08T23:09:55.181Z,23.67
2023-12-08T23:12:25.118Z,20.30
2023-12-08T23:14:53.695Z,17.08
2023-12-08T23:17:22.213Z,17.67
2023-12-08T23:19:50.624Z,20.33
2023-12-08T23:22:18.844Z,16.95
2023-12-08T23:24:47.078Z,24.40
2023-12-08T23:27:15.525Z,20.55
2023-12-08T23:29:45.282Z,18.70
2023-12-08T23:32:13.861Z,18.63
2023-12-08T23:34:42.991Z,19.48
2023-12-08T23:37:11.377Z,15.90
2023-12-08T23:39:39.804Z,17.27
2023-12-08T23:42:08.854Z,15.05
2023-12-08T23:44:37.170Z,18.27
2023-12-08T23:47:07.061Z,13.55
2023-12-08T23:49:35.403Z,16.23
2023-12-08T23:52:03.827Z,14.13
2023-12-08T23:54:32.141Z,10.05
2023-12-08T23:57:00.485Z,9.05
2023-12-08T23:59:28.956Z,13.05
